createdAt,value
2023-05-10T04:54:05.268Z,10.50
2023-05-10T04:57:07.974Z,10.50
2023-05-10T05:00:10.266Z,10.40
2023-05-10T05:03:12.243Z,10.40
2023-05-10T05:06:14.025Z,10.40
2023-05-10T05:09:15.789Z,10.40
2023-05-10T05:12:17.784Z,10.40
2023-05-10T05:15:19.490Z,10.40
2023-05-10T05:18:21.381Z,10.40
2023-05-10T05:21:23.231Z,10.40
2023-05-10T05:24:25.136Z,10.40
2023-05-10T05:27:28.763Z,10.40
2023-05-10T05:30:30.442Z,10.40
2023-05-10T05:33:32.377Z,10.50
2023-05-10T05:36:37.599Z,10.50
2023-05-10T05:39:39.390Z,10.60
2023-05-10T05:42:44.279Z,10.70
2023-05-10T05:45:45.947Z,10.80
2023-05-10T05:48:47.704Z,11.00
2023-05-10T05:51:51.212Z,11.00
2023-05-10T05:54:52.977Z,11.10
2023-05-10T05:57:54.937Z,11.10
2023-05-10T06:00:56.588Z,11.20
2023-05-10T06:03:58.372Z,11.20
2023-05-10T06:07:00.177Z,11.10
2023-05-10T06:10:02.074Z,11.20
2023-05-10T06:13:04.054Z,11.30
2023-05-10T06:16:06.501Z,11.40
2023-05-10T06:19:08.325Z,11.50
2023-05-10T06:22:10.299Z,11.50
2023-05-10T06:25:12.498Z,11.50
2023-05-10T06:28:14.267Z,11.50
2023-05-10T06:31:16.971Z,11.60
2023-05-10T06:34:18.771Z,11.70
2023-05-10T06:37:20.488Z,11.90
2023-05-10T06:40:22.151Z,12.10
2023-05-10T06:43:25.292Z,12.20
2023-05-10T06:46:27.011Z,12.20
2023-05-10T06:49:28.761Z,12.20
2023-05-10T06:52:30.417Z,12.30
2023-05-10T06:55:32.173Z,12.40
2023-05-10T06:58:34.278Z,12.40
2023-05-10T07:01:36.358Z,12.50
2023-05-10T07:04:38.169Z,12.50
2023-05-10T07:07:40.011Z,12.50
2023-05-10T07:10:41.706Z,12.50
2023-05-10T07:13:45.217Z,12.60
2023-05-10T07:16:47.008Z,12.50
2023-05-10T07:19:48.674Z,12.50
2023-05-10T07:22:50.467Z,12.50
2023-05-10T07:25:55.073Z,12.50
2023-05-10T07:28:56.875Z,12.50
2023-05-10T07:31:59.234Z,12.60
2023-05-10T07:35:01.119Z,12.70
2023-05-10T07:38:03.527Z,12.70
2023-05-10T07:41:05.226Z,12.70
2023-05-10T07:44:07.162Z,12.70
2023-05-10T07:47:08.830Z,12.80
2023-05-10T07:50:10.614Z,12.80
2023-05-10T07:53:12.257Z,12.80
2023-05-10T07:56:30.671Z,12.90
2023-05-10T07:59:33.161Z,13.10
2023-05-10T08:02:36.294Z,13.10
2023-05-10T08:05:38.128Z,13.20
2023-05-10T08:08:39.776Z,13.30
2023-05-10T08:11:41.629Z,13.40
2023-05-10T08:14:43.343Z,13.60
2023-05-10T08:17:46.932Z,13.60
2023-05-10T08:20:48.616Z,13.70
2023-05-10T08:23:50.606Z,13.80
2023-05-10T08:26:52.276Z,13.90
2023-05-10T08:29:53.931Z,13.90
2023-05-10T08:32:55.862Z,14.00
2023-05-10T08:35:57.640Z,14.20
2023-05-10T08:38:59.382Z,14.30
2023-05-10T08:42:02.614Z,14.30
2023-05-10T08:45:04.365Z,14.40
2023-05-10T08:48:09.564Z,14.60
2023-05-10T08:51:12.420Z,14.70
2023-05-10T08:54:14.123Z,14.80
2023-05-10T08:57:15.926Z,14.90
2023-05-10T09:00:18.982Z,15.00
2023-05-10T09:03:20.862Z,15.00
2023-05-10T09:06:22.628Z,15.20
2023-05-10T09:09:25.038Z,15.30
2023-05-10T09:12:26.858Z,15.40
2023-05-10T09:15:28.691Z,15.50
2023-05-10T09:18:30.435Z,15.50
2023-05-10T09:21:32.412Z,15.60
2023-05-10T09:24:34.079Z,15.80
2023-05-10T09:27:36.519Z,15.70
2023-05-10T09:30:38.336Z,15.80
2023-05-10T09:33:49.732Z,15.80
2023-05-10T09:36:55.520Z,15.90
2023-05-10T09:39:57.217Z,15.90
2023-05-10T09:43:03.572Z,16.00
2023-05-10T09:46:10.640Z,16.00
2023-05-10T09:49:15.378Z,16.10
2023-05-10T09:52:17.447Z,16.20
2023-05-10T09:55:20.832Z,16.10
2023-05-10T09:58:22.481Z,16.20
2023-05-10T10:01:27.304Z,16.20
2023-05-10T10:04:29.842Z,16.20
2023-05-10T10:07:31.543Z,16.30
2023-05-10T10:10:33.911Z,16.50
2023-05-10T10:13:35.969Z,16.70
2023-05-10T10:16:39.941Z,16.70
2023-05-10T10:19:47.853Z,16.80
2023-05-10T10:22:49.766Z,16.90
2023-05-10T10:25:52.860Z,16.90
2023-05-10T10:29:13.364Z,17.20
2023-05-10T10:32:43.949Z,17.10
2023-05-10T10:35:46.785Z,17.30
2023-05-10T10:38:48.460Z,17.20
2023-05-10T10:41:51.760Z,17.20
2023-05-10T10:45:12.850Z,17.40
2023-05-10T10:48:21.488Z,17.50
2023-05-10T10:51:23.123Z,17.40
2023-05-10T10:54:30.723Z,17.30
2023-05-10T10:57:42.190Z,17.50
2023-05-10T11:00:46.356Z,17.40
2023-05-10T11:04:06.278Z,17.00
2023-05-10T11:07:17.664Z,17.00
2023-05-10T11:10:23.045Z,17.20
2023-05-10T11:13:41.333Z,17.50
2023-05-10T11:16:44.068Z,17.80
2023-05-10T11:20:10.411Z,17.90
2023-05-10T11:23:16.909Z,18.20
2023-05-10T11:26:19.039Z,18.50
2023-05-10T11:29:21.189Z,18.60
2023-05-10T11:32:23.061Z,18.60
2023-05-10T11:35:24.751Z,18.40
2023-05-10T11:38:26.639Z,18.30
2023-05-10T11:41:29.198Z,18.50
2023-05-10T11:44:32.276Z,18.90
2023-05-10T11:47:34.042Z,19.10
2023-05-10T11:50:35.734Z,19.10
2023-05-10T11:53:37.612Z,19.10
2023-05-10T11:56:40.452Z,19.30
2023-05-10T11:59:43.222Z,19.50
2023-05-10T12:02:45.138Z,19.30
2023-05-10T12:05:47.153Z,19.10
2023-05-10T12:08:50.942Z,19.00
2023-05-10T12:11:56.616Z,19.40
2023-05-10T12:14:58.338Z,19.50
2023-05-10T12:18:00.805Z,19.30
2023-05-10T12:21:04.470Z,19.20
2023-05-10T12:24:06.324Z,19.20
2023-05-10T12:27:09.452Z,19.30
2023-05-10T12:30:11.828Z,19.40
2023-05-10T12:33:15.749Z,19.40
2023-05-10T12:36:17.777Z,19.10
2023-05-10T12:39:19.412Z,18.80
2023-05-10T12:42:21.727Z,18.80
2023-05-10T12:45:23.451Z,18.90
2023-05-10T12:48:25.228Z,19.20
2023-05-10T12:51:26.874Z,19.70
2023-05-10T12:54:28.861Z,19.80
2023-05-10T12:57:30.662Z,19.70
2023-05-10T13:00:32.335Z,19.40
2023-05-10T13:03:34.270Z,19.20
2023-05-10T13:06:36.178Z,18.80
2023-05-10T13:09:37.937Z,18.60
2023-05-10T13:12:39.736Z,18.40
2023-05-10T13:15:41.459Z,18.30
2023-05-10T13:18:43.132Z,18.50
2023-05-10T13:21:47.856Z,18.70
2023-05-10T13:24:49.640Z,18.80
2023-05-10T13:27:51.310Z,18.90
2023-05-10T13:30:53.024Z,19.00
2023-05-10T13:33:54.961Z,19.00
2023-05-10T13:36:57.154Z,19.30
2023-05-10T13:39:58.811Z,19.50
2023-05-10T13:43:00.547Z,19.50
2023-05-10T13:46:02.295Z,19.50
2023-05-10T13:49:04.056Z,19.70
2023-05-10T13:52:10.881Z,19.80
2023-05-10T13:55:14.154Z,19.80
2023-05-10T13:58:15.804Z,19.60
2023-05-10T14:01:17.541Z,19.20
2023-05-10T14:04:19.440Z,18.70
2023-05-10T14:07:21.150Z,18.30
2023-05-10T14:10:22.852Z,18.00
2023-05-10T14:13:24.926Z,17.70
2023-05-10T14:16:28.016Z,17.50
2023-05-10T14:19:33.377Z,17.50
2023-05-10T14:22:35.494Z,17.30
2023-05-10T14:25:37.342Z,17.20
2023-05-10T14:28:39.062Z,17.20
2023-05-10T14:31:41.384Z,17.30
2023-05-10T14:34:43.185Z,17.50
2023-05-10T14:37:44.852Z,17.80
2023-05-10T14:40:46.502Z,18.20
2023-05-10T14:43:48.367Z,18.70
2023-05-10T14:46:51.510Z,19.10
2023-05-10T14:49:53.160Z,19.30
2023-05-10T14:52:54.859Z,19.40
2023-05-10T14:55:56.574Z,19.60
2023-05-10T14:58:58.380Z,20.00
2023-05-10T15:02:00.673Z,20.00
2023-05-10T15:05:03.092Z,20.20
2023-05-10T15:08:06.356Z,20.10
2023-05-10T15:11:08.034Z,19.70
2023-05-10T15:14:09.979Z,19.30
2023-05-10T15:17:12.047Z,19.40
2023-05-10T15:20:13.736Z,19.50
2023-05-10T15:23:15.404Z,19.80
2023-05-10T15:26:17.240Z,20.00
2023-05-10T15:29:20.916Z,20.30
2023-05-10T15:32:22.809Z,20.70
2023-05-10T15:35:24.573Z,20.60
2023-05-10T15:38:26.758Z,20.30
2023-05-10T15:41:28.950Z,20.20
2023-05-10T15:44:30.613Z,20.80
2023-05-10T15:47:32.360Z,22.10
2023-05-10T15:50:34.059Z,22.70
2023-05-10T15:53:36.056Z,22.70
2023-05-10T15:56:38.051Z,22.60
2023-05-10T15:59:39.711Z,23.20
2023-05-10T16:02:41.879Z,23.60
2023-05-10T16:05:43.652Z,23.10
2023-05-10T16:08:45.297Z,22.30
2023-05-10T16:11:47.199Z,21.50
2023-05-10T16:14:48.846Z,20.60
2023-05-10T16:17:50.908Z,20.00
2023-05-10T16:20:53.312Z,19.40
2023-05-10T16:23:56.058Z,18.90
2023-05-10T16:26:57.940Z,18.40
2023-05-10T16:29:59.940Z,18.10
2023-05-10T16:33:02.386Z,17.60
2023-05-10T16:36:06.083Z,17.00
2023-05-10T16:39:09.272Z,16.10
2023-05-10T16:42:11.227Z,15.60
2023-05-10T16:45:13.222Z,15.20
2023-05-10T16:48:14.900Z,15.00
2023-05-10T16:51:16.609Z,14.80
2023-05-10T16:54:18.550Z,14.80
2023-05-10T16:57:20.306Z,14.70
2023-05-10T17:00:22.026Z,14.70
2023-05-10T17:03:24.150Z,14.80
2023-05-10T17:06:26.004Z,14.80
2023-05-10T17:09:27.654Z,14.80
2023-05-10T17:12:29.613Z,14.80
2023-05-10T17:15:31.258Z,14.70
2023-05-10T17:18:32.951Z,14.70
2023-05-10T17:21:34.833Z,14.70
2023-05-10T17:24:36.470Z,14.60
2023-05-10T17:27:38.139Z,14.50
2023-05-10T17:30:39.882Z,14.50
2023-05-10T17:33:42.127Z,14.40
2023-05-10T17:36:43.931Z,14.40
2023-05-10T17:39:45.649Z,14.40
2023-05-10T17:42:47.662Z,14.40
2023-05-10T17:45:49.821Z,14.40
2023-05-10T17:48:51.518Z,14.30
2023-05-10T17:51:53.303Z,14.30
2023-05-10T17:54:54.997Z,14.30
2023-05-10T17:58:00.245Z,14.30
2023-05-10T18:01:02.234Z,14.40
2023-05-10T18:04:04.646Z,14.40
2023-05-10T18:07:06.471Z,14.50
2023-05-10T18:10:08.432Z,14.60
2023-05-10T18:13:10.223Z,14.50
2023-05-10T18:16:13.357Z,14.50
2023-05-10T18:19:15.032Z,14.60
2023-05-10T18:22:16.751Z,14.60
2023-05-10T18:25:18.596Z,14.70
2023-05-10T18:28:20.493Z,14.80
2023-05-10T18:31:22.271Z,14.90
2023-05-10T18:34:24.187Z,14.90
2023-05-10T18:37:25.827Z,14.90
2023-05-10T18:40:27.625Z,14.90
2023-05-10T18:43:29.598Z,15.00
2023-05-10T18:46:31.386Z,15.00
2023-05-10T18:49:33.205Z,15.00
2023-05-10T18:52:36.731Z,15.10
2023-05-10T18:55:38.594Z,15.00
2023-05-10T18:58:40.331Z,15.00
2023-05-10T19:01:42.091Z,15.00
2023-05-10T19:04:43.834Z,14.90
2023-05-10T19:07:45.687Z,14.80
2023-05-10T19:10:47.330Z,14.80
2023-05-10T19:13:49.191Z,14.70
2023-05-10T19:16:52.251Z,14.60
2023-05-10T19:19:55.860Z,14.50
2023-05-10T19:23:09.088Z,14.40
2023-05-10T19:26:12.303Z,14.30
2023-05-10T19:29:14.111Z,14.20
2023-05-10T19:32:15.989Z,14.00
2023-05-10T19:35:17.955Z,13.90
2023-05-10T19:38:22.086Z,13.90
2023-05-10T19:41:23.914Z,13.70
2023-05-10T19:44:25.846Z,13.70
2023-05-10T19:47:27.611Z,13.60
2023-05-10T19:50:29.489Z,13.60
2023-05-10T19:53:31.568Z,13.60
2023-05-10T19:56:33.318Z,13.60
2023-05-10T19:59:35.421Z,13.60
2023-05-10T20:02:37.345Z,13.60
2023-05-10T20:05:39.042Z,13.50
2023-05-10T20:08:40.799Z,13.50
2023-05-10T20:11:42.513Z,13.50
2023-05-10T20:14:44.184Z,13.50
2023-05-10T20:17:46.497Z,13.50
2023-05-10T20:20:48.206Z,13.50
2023-05-10T20:23:50.013Z,13.50
2023-05-10T20:26:51.732Z,13.50
2023-05-10T20:29:53.377Z,13.50
2023-05-10T20:32:55.329Z,13.50
2023-05-10T20:35:57.374Z,13.50
2023-05-10T20:38:59.098Z,13.40
2023-05-10T20:42:00.870Z,13.30
2023-05-10T20:45:03.292Z,13.20
2023-05-10T20:48:05.248Z,13.10
2023-05-10T20:51:06.956Z,13.00
2023-05-10T20:54:08.656Z,12.90
2023-05-10T20:57:12.651Z,12.80
2023-05-10T21:00:15.010Z,12.80
